sensor_id;sensor_type;location;lat;lon;timestamp;P1;durP1;ratioP1;P2;durP2;ratioP2
36715;SDS011;22699;51.034;3.730;2023-03-24T00:01:43;3.67;;;2.03;;
36715;SDS011;22699;51.034;3.730;2023-03-24T00:04:12;3.85;;;1.95;;
36715;SDS011;22699;51.034;3.730;2023-03-24T00:06:44;4.47;;;2.67;;
36715;SDS011;22699;51.034;3.730;2023-03-24T00:09:14;4.35;;;2.30;;
36715;SDS011;22699;51.034;3.730;2023-03-24T00:11:56;4.35;;;2.53;;
36715;SDS011;22699;51.034;3.730;2023-03-24T00:14:37;5.65;;;2.40;;
36715;SDS011;22699;51.034;3.730;2023-03-24T00:17:04;7.70;;;2.42;;
36715;SDS011;22699;51.034;3.730;2023-03-24T00:19:40;4.55;;;2.45;;
36715;SDS011;22699;51.034;3.730;2023-03-24T00:22:07;5.25;;;2.58;;
36715;SDS011;22699;51.034;3.730;2023-03-24T00:24:56;4.25;;;2.30;;
36715;SDS011;22699;51.034;3.730;2023-03-24T00:27:27;3.30;;;2.38;;
36715;SDS011;22699;51.034;3.730;2023-03-24T00:34:58;8.95;;;2.65;;
36715;SDS011;22699;51.034;3.730;2023-03-24T00:37:26;4.68;;;2.20;;
36715;SDS011;22699;51.034;3.730;2023-03-24T00:39:53;3.58;;;2.72;;
36715;SDS011;22699;51.034;3.730;2023-03-24T00:42:18;2.45;;;1.77;;
36715;SDS011;22699;51.034;3.730;2023-03-24T00:47:38;4.32;;;2.40;;
36715;SDS011;22699;51.034;3.730;2023-03-24T00:50:07;7.18;;;2.63;;
36715;SDS011;22699;51.034;3.730;2023-03-24T00:52:42;5.00;;;2.38;;
36715;SDS011;22699;51.034;3.730;2023-03-24T00:55:22;6.45;;;2.88;;
36715;SDS011;22699;51.034;3.730;2023-03-24T00:57:48;5.50;;;2.95;;
36715;SDS011;22699;51.034;3.730;2023-03-24T01:00:17;4.65;;;2.90;;
36715;SDS011;22699;51.034;3.730;2023-03-24T01:02:46;4.60;;;2.80;;
36715;SDS011;22699;51.034;3.730;2023-03-24T01:05:27;5.85;;;3.22;;
36715;SDS011;22699;51.034;3.730;2023-03-24T01:07:59;5.05;;;3.40;;
36715;SDS011;22699;51.034;3.730;2023-03-24T01:10:28;6.60;;;3.42;;
36715;SDS011;22699;51.034;3.730;2023-03-24T01:13:19;4.45;;;3.10;;
36715;SDS011;22699;51.034;3.730;2023-03-24T01:15:47;5.05;;;3.05;;
36715;SDS011;22699;51.034;3.730;2023-03-24T01:18:15;7.07;;;3.25;;
36715;SDS011;22699;51.034;3.730;2023-03-24T01:20:44;4.10;;;2.95;;
36715;SDS011;22699;51.034;3.730;2023-03-24T01:23:15;5.03;;;3.00;;
36715;SDS011;22699;51.034;3.730;2023-03-24T01:28:21;3.63;;;2.08;;
36715;SDS011;22699;51.034;3.730;2023-03-24T01:30:51;3.90;;;2.03;;
36715;SDS011;22699;51.034;3.730;2023-03-24T01:33:21;2.38;;;1.60;;
36715;SDS011;22699;51.034;3.730;2023-03-24T01:35:49;2.50;;;1.30;;
36715;SDS011;22699;51.034;3.730;2023-03-24T01:38:21;5.75;;;1.35;;
36715;SDS011;22699;51.034;3.730;2023-03-24T01:40:48;1.63;;;0.75;;
36715;SDS011;22699;51.034;3.730;2023-03-24T01:43:25;1.17;;;0.80;;
36715;SDS011;22699;51.034;3.730;2023-03-24T01:48:29;2.72;;;0.80;;
36715;SDS011;22699;51.034;3.730;2023-03-24T01:54:29;3.25;;;0.80;;
36715;SDS011;22699;51.034;3.730;2023-03-24T02:00:01;2.38;;;0.98;;
36715;SDS011;22699;51.034;3.730;2023-03-24T02:02:34;2.00;;;0.82;;
36715;SDS011;22699;51.034;3.730;2023-03-24T02:05:14;3.72;;;1.20;;
36715;SDS011;22699;51.034;3.730;2023-03-24T02:07:57;3.92;;;0.82;;
36715;SDS011;22699;51.034;3.730;2023-03-24T02:10:29;4.13;;;0.88;;
36715;SDS011;22699;51.034;3.730;2023-03-24T02:13:02;4.88;;;0.88;;
36715;SDS011;22699;51.034;3.730;2023-03-24T02:15:30;2.90;;;0.80;;
36715;SDS011;22699;51.034;3.730;2023-03-24T02:18:21;9.50;;;1.58;;
36715;SDS011;22699;51.034;3.730;2023-03-24T02:30:25;5.15;;;1.60;;
36715;SDS011;22699;51.034;3.730;2023-03-24T02:36:33;7.35;;;1.35;;
36715;SDS011;22699;51.034;3.730;2023-03-24T02:42:42;5.85;;;1.20;;
36715;SDS011;22699;51.034;3.730;2023-03-24T02:45:48;4.78;;;1.42;;
36715;SDS011;22699;51.034;3.730;2023-03-24T02:51:52;7.13;;;1.48;;
36715;SDS011;22699;51.034;3.730;2023-03-24T02:57:50;5.20;;;1.52;;
36715;SDS011;22699;51.034;3.730;2023-03-24T03:00:35;5.65;;;1.75;;
36715;SDS011;22699;51.034;3.730;2023-03-24T03:06:17;5.88;;;1.38;;
36715;SDS011;22699;51.034;3.730;2023-03-24T03:08:49;5.32;;;1.52;;
36715;SDS011;22699;51.034;3.730;2023-03-24T03:13:55;6.03;;;1.90;;
36715;SDS011;22699;51.034;3.730;2023-03-24T03:19:38;6.60;;;1.70;;
36715;SDS011;22699;51.034;3.730;2023-03-24T03:22:15;10.63;;;2.33;;
36715;SDS011;22699;51.034;3.730;2023-03-24T03:25:23;10.27;;;2.47;;
36715;SDS011;22699;51.034;3.730;2023-03-24T03:28:17;8.65;;;1.80;;
36715;SDS011;22699;51.034;3.730;2023-03-24T03:30:54;9.45;;;2.30;;
36715;SDS011;22699;51.034;3.730;2023-03-24T03:33:54;11.30;;;1.70;;
36715;SDS011;22699;51.034;3.730;2023-03-24T03:42:38;18.88;;;2.47;;
36715;SDS011;22699;51.034;3.730;2023-03-24T03:45:24;10.05;;;2.13;;
36715;SDS011;22699;51.034;3.730;2023-03-24T03:47:58;6.90;;;2.15;;
36715;SDS011;22699;51.034;3.730;2023-03-24T03:50:30;18.00;;;2.47;;
36715;SDS011;22699;51.034;3.730;2023-03-24T03:52:57;11.77;;;2.33;;
36715;SDS011;22699;51.034;3.730;2023-03-24T03:55:22;11.90;;;1.80;;
36715;SDS011;22699;51.034;3.730;2023-03-24T03:57:48;13.48;;;3.08;;
36715;SDS011;22699;51.034;3.730;2023-03-24T04:00:17;14.00;;;2.15;;
36715;SDS011;22699;51.034;3.730;2023-03-24T04:03:06;11.77;;;2.00;;
36715;SDS011;22699;51.034;3.730;2023-03-24T04:21:56;15.80;;;2.10;;
36715;SDS011;22699;51.034;3.730;2023-03-24T04:24:50;18.98;;;2.28;;
36715;SDS011;22699;51.034;3.730;2023-03-24T04:30:42;14.50;;;2.20;;
36715;SDS011;22699;51.034;3.730;2023-03-24T04:36:00;13.18;;;2.20;;
36715;SDS011;22699;51.034;3.730;2023-03-24T04:38:46;12.63;;;2.75;;
36715;SDS011;22699;51.034;3.730;2023-03-24T04:43:52;18.80;;;4.15;;
36715;SDS011;22699;51.034;3.730;2023-03-24T04:46:22;18.48;;;2.85;;
36715;SDS011;22699;51.034;3.730;2023-03-24T04:48:53;13.45;;;3.13;;
36715;SDS011;22699;51.034;3.730;2023-03-24T04:51:19;9.93;;;1.80;;
36715;SDS011;22699;51.034;3.730;2023-03-24T04:53:47;12.55;;;2.20;;
36715;SDS011;22699;51.034;3.730;2023-03-24T04:56:33;11.52;;;2.67;;
36715;SDS011;22699;51.034;3.730;2023-03-24T04:59:18;16.05;;;2.38;;
36715;SDS011;22699;51.034;3.730;2023-03-24T05:01:47;15.40;;;2.22;;
36715;SDS011;22699;51.034;3.730;2023-03-24T05:04:18;12.95;;;2.45;;
36715;SDS011;22699;51.034;3.730;2023-03-24T05:07:04;13.05;;;2.50;;
36715;SDS011;22699;51.034;3.730;2023-03-24T05:09:39;13.50;;;3.20;;
36715;SDS011;22699;51.034;3.730;2023-03-24T05:12:17;17.63;;;3.05;;
36715;SDS011;22699;51.034;3.730;2023-03-24T05:14:51;13.07;;;2.42;;
36715;SDS011;22699;51.034;3.730;2023-03-24T05:17:17;18.65;;;3.55;;
36715;SDS011;22699;51.034;3.730;2023-03-24T05:19:43;19.52;;;2.55;;
36715;SDS011;22699;51.034;3.730;2023-03-24T05:22:08;20.00;;;2.97;;
36715;SDS011;22699;51.034;3.730;2023-03-24T05:24:34;13.43;;;2.53;;
36715;SDS011;22699;51.034;3.730;2023-03-24T05:27:01;15.18;;;4.07;;
36715;SDS011;22699;51.034;3.730;2023-03-24T05:32:00;17.45;;;2.67;;
36715;SDS011;22699;51.034;3.730;2023-03-24T05:34:25;14.65;;;2.42;;
36715;SDS011;22699;51.034;3.730;2023-03-24T05:36:56;19.48;;;4.30;;
36715;SDS011;22699;51.034;3.730;2023-03-24T05:42:11;13.40;;;2.97;;
36715;SDS011;22699;51.034;3.730;2023-03-24T05:44:51;12.20;;;2.47;;
36715;SDS011;22699;51.034;3.730;2023-03-24T05:47:17;15.85;;;2.85;;
36715;SDS011;22699;51.034;3.730;2023-03-24T05:49:47;13.98;;;2.80;;
36715;SDS011;22699;51.034;3.730;2023-03-24T05:52:17;17.08;;;2.95;;
36715;SDS011;22699;51.034;3.730;2023-03-24T05:55:04;16.88;;;2.88;;
36715;SDS011;22699;51.034;3.730;2023-03-24T05:57:34;12.65;;;2.08;;
36715;SDS011;22699;51.034;3.730;2023-03-24T06:00:04;15.60;;;2.70;;
36715;SDS011;22699;51.034;3.730;2023-03-24T06:02:40;9.63;;;2.05;;
36715;SDS011;22699;51.034;3.730;2023-03-24T06:05:08;14.68;;;3.05;;
36715;SDS011;22699;51.034;3.730;2023-03-24T06:07:35;17.85;;;4.47;;
36715;SDS011;22699;51.034;3.730;2023-03-24T06:10:14;17.58;;;2.78;;
36715;SDS011;22699;51.034;3.730;2023-03-24T06:12:48;14.60;;;3.35;;
36715;SDS011;22699;51.034;3.730;2023-03-24T06:17:52;16.23;;;2.92;;
36715;SDS011;22699;51.034;3.730;2023-03-24T06:20:22;15.23;;;3.40;;
36715;SDS011;22699;51.034;3.730;2023-03-24T06:22:48;17.27;;;2.72;;
36715;SDS011;22699;51.034;3.730;2023-03-24T06:28:15;10.82;;;3.08;;
36715;SDS011;22699;51.034;3.730;2023-03-24T06:30:46;16.45;;;2.42;;
36715;SDS011;22699;51.034;3.730;2023-03-24T06:33:13;14.43;;;3.05;;
36715;SDS011;22699;51.034;3.730;2023-03-24T06:35:40;22.35;;;5.10;;
36715;SDS011;22699;51.034;3.730;2023-03-24T06:38:09;10.38;;;3.85;;
36715;SDS011;22699;51.034;3.730;2023-03-24T06:40:35;9.60;;;2.22;;
36715;SDS011;22699;51.034;3.730;2023-03-24T06:43:09;11.30;;;2.67;;
36715;SDS011;22699;51.034;3.730;2023-03-24T06:45:44;11.68;;;2.50;;
36715;SDS011;22699;51.034;3.730;2023-03-24T06:48:13;14.35;;;2.47;;
36715;SDS011;22699;51.034;3.730;2023-03-24T06:50:45;10.02;;;2.92;;
36715;SDS011;22699;51.034;3.730;2023-03-24T06:53:11;12.05;;;2.80;;
36715;SDS011;22699;51.034;3.730;2023-03-24T06:55:42;13.68;;;2.30;;
36715;SDS011;22699;51.034;3.730;2023-03-24T06:58:07;15.73;;;3.88;;
36715;SDS011;22699;51.034;3.730;2023-03-24T07:00:36;18.65;;;4.20;;
36715;SDS011;22699;51.034;3.730;2023-03-24T07:03:09;12.55;;;2.50;;
36715;SDS011;22699;51.034;3.730;2023-03-24T07:05:39;12.82;;;2.97;;
36715;SDS011;22699;51.034;3.730;2023-03-24T07:08:10;14.15;;;3.15;;
36715;SDS011;22699;51.034;3.730;2023-03-24T07:10:39;11.55;;;2.38;;
36715;SDS011;22699;51.034;3.730;2023-03-24T07:21:42;10.50;;;2.58;;
36715;SDS011;22699;51.034;3.730;2023-03-24T07:24:31;7.97;;;2.28;;
36715;SDS011;22699;51.034;3.730;2023-03-24T07:27:20;12.95;;;2.30;;
36715;SDS011;22699;51.034;3.730;2023-03-24T07:41:50;16.33;;;3.75;;
36715;SDS011;22699;51.034;3.730;2023-03-24T07:44:16;7.57;;;2.38;;
36715;SDS011;22699;51.034;3.730;2023-03-24T07:46:55;12.32;;;3.53;;
36715;SDS011;22699;51.034;3.730;2023-03-24T07:49:27;10.30;;;2.80;;
36715;SDS011;22699;51.034;3.730;2023-03-24T07:51:56;16.10;;;2.53;;
36715;SDS011;22699;51.034;3.730;2023-03-24T07:54:37;10.25;;;2.08;;
36715;SDS011;22699;51.034;3.730;2023-03-24T07:57:10;12.63;;;3.15;;
36715;SDS011;22699;51.034;3.730;2023-03-24T07:59:38;14.38;;;2.47;;
36715;SDS011;22699;51.034;3.730;2023-03-24T08:02:21;11.88;;;2.72;;
36715;SDS011;22699;51.034;3.730;2023-03-24T08:04:51;10.68;;;2.17;;
36715;SDS011;22699;51.034;3.730;2023-03-24T08:07:19;14.27;;;2.83;;
36715;SDS011;22699;51.034;3.730;2023-03-24T08:09:51;8.45;;;2.38;;
36715;SDS011;22699;51.034;3.730;2023-03-24T08:12:18;11.98;;;2.28;;
36715;SDS011;22699;51.034;3.730;2023-03-24T08:14:47;14.90;;;2.65;;
36715;SDS011;22699;51.034;3.730;2023-03-24T08:17:14;19.20;;;4.50;;
36715;SDS011;22699;51.034;3.730;2023-03-24T08:22:19;12.75;;;2.33;;
36715;SDS011;22699;51.034;3.730;2023-03-24T08:24:58;11.77;;;2.35;;
36715;SDS011;22699;51.034;3.730;2023-03-24T08:27:33;10.68;;;2.67;;
36715;SDS011;22699;51.034;3.730;2023-03-24T08:32:32;20.38;;;2.72;;
36715;SDS011;22699;51.034;3.730;2023-03-24T08:35:23;14.23;;;2.80;;
36715;SDS011;22699;51.034;3.730;2023-03-24T08:38:07;11.73;;;2.28;;
36715;SDS011;22699;51.034;3.730;2023-03-24T08:40:39;15.45;;;2.60;;
36715;SDS011;22699;51.034;3.730;2023-03-24T08:43:26;11.85;;;2.50;;
36715;SDS011;22699;51.034;3.730;2023-03-24T08:45:57;12.32;;;2.35;;
36715;SDS011;22699;51.034;3.730;2023-03-24T08:48:38;11.27;;;3.20;;
36715;SDS011;22699;51.034;3.730;2023-03-24T08:51:16;8.88;;;2.40;;
36715;SDS011;22699;51.034;3.730;2023-03-24T08:53:58;10.95;;;2.83;;
36715;SDS011;22699;51.034;3.730;2023-03-24T08:59:42;12.15;;;2.30;;
36715;SDS011;22699;51.034;3.730;2023-03-24T09:06:12;11.43;;;2.15;;
36715;SDS011;22699;51.034;3.730;2023-03-24T09:08:44;9.98;;;2.63;;
36715;SDS011;22699;51.034;3.730;2023-03-24T09:11:16;9.57;;;3.15;;
36715;SDS011;22699;51.034;3.730;2023-03-24T09:13:59;13.48;;;2.38;;
36715;SDS011;22699;51.034;3.730;2023-03-24T09:16:34;6.65;;;1.75;;
36715;SDS011;22699;51.034;3.730;2023-03-24T09:19:03;10.70;;;2.55;;
36715;SDS011;22699;51.034;3.730;2023-03-24T09:24:26;11.82;;;2.80;;
36715;SDS011;22699;51.034;3.730;2023-03-24T09:26:51;20.75;;;2.97;;
36715;SDS011;22699;51.034;3.730;2023-03-24T09:29:36;15.73;;;3.20;;
36715;SDS011;22699;51.034;3.730;2023-03-24T09:32:05;14.23;;;2.55;;
36715;SDS011;22699;51.034;3.730;2023-03-24T09:34:52;9.07;;;2.75;;
36715;SDS011;22699;51.034;3.730;2023-03-24T09:38:04;11.05;;;2.78;;
36715;SDS011;22699;51.034;3.730;2023-03-24T09:40:40;12.73;;;2.10;;
36715;SDS011;22699;51.034;3.730;2023-03-24T09:50:06;9.25;;;2.95;;
36715;SDS011;22699;51.034;3.730;2023-03-24T09:56:50;12.98;;;2.40;;
36715;SDS011;22699;51.034;3.730;2023-03-24T10:02:11;10.82;;;3.22;;
36715;SDS011;22699;51.034;3.730;2023-03-24T10:04:55;7.95;;;1.27;;
36715;SDS011;22699;51.034;3.730;2023-03-24T10:07:38;8.88;;;2.03;;
36715;SDS011;22699;51.034;3.730;2023-03-24T10:13:05;4.40;;;1.13;;
36715;SDS011;22699;51.034;3.730;2023-03-24T10:15:45;6.05;;;1.23;;
36715;SDS011;22699;51.034;3.730;2023-03-24T10:21:41;6.13;;;1.10;;
36715;SDS011;22699;51.034;3.730;2023-03-24T10:24:33;6.13;;;1.48;;
36715;SDS011;22699;51.034;3.730;2023-03-24T10:33:20;11.30;;;3.05;;
36715;SDS011;22699;51.034;3.730;2023-03-24T10:39:31;14.23;;;2.20;;
36715;SDS011;22699;51.034;3.730;2023-03-24T10:42:25;9.25;;;2.00;;
36715;SDS011;22699;51.034;3.730;2023-03-24T10:45:19;10.13;;;2.15;;
36715;SDS011;22699;51.034;3.730;2023-03-24T10:48:11;8.07;;;2.60;;
36715;SDS011;22699;51.034;3.730;2023-03-24T10:50:40;10.75;;;2.28;;
36715;SDS011;22699;51.034;3.730;2023-03-24T10:53:20;10.73;;;2.55;;
36715;SDS011;22699;51.034;3.730;2023-03-24T10:55:53;8.88;;;2.92;;
36715;SDS011;22699;51.034;3.730;2023-03-24T11:01:31;10.40;;;2.85;;
36715;SDS011;22699;51.034;3.730;2023-03-24T11:04:03;8.73;;;2.85;;
36715;SDS011;22699;51.034;3.730;2023-03-24T11:06:35;11.50;;;3.20;;
36715;SDS011;22699;51.034;3.730;2023-03-24T11:09:21;6.90;;;2.28;;
36715;SDS011;22699;51.034;3.730;2023-03-24T11:11:52;8.20;;;2.55;;
36715;SDS011;22699;51.034;3.730;2023-03-24T11:14:24;12.10;;;1.67;;
36715;SDS011;22699;51.034;3.730;2023-03-24T11:16:53;10.05;;;1.88;;
36715;SDS011;22699;51.034;3.730;2023-03-24T11:19:37;6.53;;;1.77;;
36715;SDS011;22699;51.034;3.730;2023-03-24T11:22:07;8.27;;;1.60;;
36715;SDS011;22699;51.034;3.730;2023-03-24T11:24:37;8.88;;;1.80;;
36715;SDS011;22699;51.034;3.730;2023-03-24T11:27:04;10.00;;;1.73;;
36715;SDS011;22699;51.034;3.730;2023-03-24T11:29:44;10.98;;;2.17;;
36715;SDS011;22699;51.034;3.730;2023-03-24T11:32:24;12.98;;;1.90;;
36715;SDS011;22699;51.034;3.730;2023-03-24T11:34:57;7.65;;;1.77;;
36715;SDS011;22699;51.034;3.730;2023-03-24T11:37:41;9.65;;;2.20;;
36715;SDS011;22699;51.034;3.730;2023-03-24T11:43:00;8.13;;;2.30;;
36715;SDS011;22699;51.034;3.730;2023-03-24T11:51:35;11.80;;;2.40;;
36715;SDS011;22699;51.034;3.730;2023-03-24T11:54:05;7.10;;;2.15;;
36715;SDS011;22699;51.034;3.730;2023-03-24T11:56:41;9.32;;;2.28;;
36715;SDS011;22699;51.034;3.730;2023-03-24T12:02:32;7.55;;;1.88;;
36715;SDS011;22699;51.034;3.730;2023-03-24T12:08:31;11.80;;;2.78;;
36715;SDS011;22699;51.034;3.730;2023-03-24T12:11:14;9.07;;;1.95;;
36715;SDS011;22699;51.034;3.730;2023-03-24T12:14:26;7.05;;;2.00;;
36715;SDS011;22699;51.034;3.730;2023-03-24T12:17:21;9.27;;;3.15;;
36715;SDS011;22699;51.034;3.730;2023-03-24T12:25:41;10.32;;;2.00;;
36715;SDS011;22699;51.034;3.730;2023-03-24T12:28:18;8.05;;;2.38;;
36715;SDS011;22699;51.034;3.730;2023-03-24T12:49:54;8.95;;;1.55;;
36715;SDS011;22699;51.034;3.730;2023-03-24T12:58:55;7.60;;;1.70;;
36715;SDS011;22699;51.034;3.730;2023-03-24T13:04:37;6.00;;;1.38;;
36715;SDS011;22699;51.034;3.730;2023-03-24T13:07:08;5.68;;;1.70;;
36715;SDS011;22699;51.034;3.730;2023-03-24T13:16:02;6.65;;;1.92;;
36715;SDS011;22699;51.034;3.730;2023-03-24T13:18:43;7.05;;;1.77;;
36715;SDS011;22699;51.034;3.730;2023-03-24T13:25:03;8.27;;;1.60;;
36715;SDS011;22699;51.034;3.730;2023-03-24T13:28:03;7.22;;;1.52;;
36715;SDS011;22699;51.034;3.730;2023-03-24T13:30:35;7.10;;;1.73;;
36715;SDS011;22699;51.034;3.730;2023-03-24T13:33:14;7.07;;;1.27;;
36715;SDS011;22699;51.034;3.730;2023-03-24T13:38:52;6.60;;;1.33;;
36715;SDS011;22699;51.034;3.730;2023-03-24T13:41:28;7.22;;;1.05;;
36715;SDS011;22699;51.034;3.730;2023-03-24T13:44:14;5.30;;;1.17;;
36715;SDS011;22699;51.034;3.730;2023-03-24T13:49:41;11.50;;;1.80;;
36715;SDS011;22699;51.034;3.730;2023-03-24T13:52:27;6.40;;;1.42;;
36715;SDS011;22699;51.034;3.730;2023-03-24T13:55:21;7.25;;;1.55;;
36715;SDS011;22699;51.034;3.730;2023-03-24T13:57:56;9.90;;;2.15;;
36715;SDS011;22699;51.034;3.730;2023-03-24T14:00:26;13.05;;;1.90;;
36715;SDS011;22699;51.034;3.730;2023-03-24T14:03:19;7.10;;;1.45;;
36715;SDS011;22699;51.034;3.730;2023-03-24T14:05:59;9.80;;;2.08;;
36715;SDS011;22699;51.034;3.730;2023-03-24T14:14:21;5.15;;;1.63;;
36715;SDS011;22699;51.034;3.730;2023-03-24T14:16:50;3.35;;;0.80;;
36715;SDS011;22699;51.034;3.730;2023-03-24T14:19:40;4.38;;;1.00;;
36715;SDS011;22699;51.034;3.730;2023-03-24T14:22:11;6.00;;;1.27;;
36715;SDS011;22699;51.034;3.730;2023-03-24T14:24:40;4.38;;;1.55;;
36715;SDS011;22699;51.034;3.730;2023-03-24T14:29:58;5.78;;;1.40;;
36715;SDS011;22699;51.034;3.730;2023-03-24T14:32:32;4.13;;;1.38;;
36715;SDS011;22699;51.034;3.730;2023-03-24T14:35:17;7.50;;;1.15;;
36715;SDS011;22699;51.034;3.730;2023-03-24T14:37:54;6.38;;;1.50;;
36715;SDS011;22699;51.034;3.730;2023-03-24T14:40:45;6.43;;;1.30;;
36715;SDS011;22699;51.034;3.730;2023-03-24T14:43:16;5.30;;;1.42;;
36715;SDS011;22699;51.034;3.730;2023-03-24T14:45:51;7.93;;;1.63;;
36715;SDS011;22699;51.034;3.730;2023-03-24T14:48:30;6.85;;;2.17;;
36715;SDS011;22699;51.034;3.730;2023-03-24T14:51:02;9.77;;;2.15;;
36715;SDS011;22699;51.034;3.730;2023-03-24T14:53:38;8.20;;;2.22;;
36715;SDS011;22699;51.034;3.730;2023-03-24T14:56:13;4.65;;;0.90;;
36715;SDS011;22699;51.034;3.730;2023-03-24T14:59:01;6.88;;;1.52;;
36715;SDS011;22699;51.034;3.730;2023-03-24T15:01:39;5.03;;;1.30;;
36715;SDS011;22699;51.034;3.730;2023-03-24T15:04:09;4.38;;;1.20;;
36715;SDS011;22699;51.034;3.730;2023-03-24T15:06:57;4.80;;;0.90;;
36715;SDS011;22699;51.034;3.730;2023-03-24T15:09:39;3.45;;;1.05;;
36715;SDS011;22699;51.034;3.730;2023-03-24T15:12:14;3.03;;;1.25;;
36715;SDS011;22699;51.034;3.730;2023-03-24T15:15:12;8.18;;;1.17;;
36715;SDS011;22699;51.034;3.730;2023-03-24T15:17:44;4.40;;;1.10;;
36715;SDS011;22699;51.034;3.730;2023-03-24T15:20:24;8.90;;;1.25;;
36715;SDS011;22699;51.034;3.730;2023-03-24T15:22:52;7.25;;;1.45;;
36715;SDS011;22699;51.034;3.730;2023-03-24T15:25:23;7.25;;;1.10;;
36715;SDS011;22699;51.034;3.730;2023-03-24T15:27:53;6.63;;;0.93;;
36715;SDS011;22699;51.034;3.730;2023-03-24T15:30:20;8.30;;;1.48;;
36715;SDS011;22699;51.034;3.730;2023-03-24T15:32:46;11.00;;;1.92;;
36715;SDS011;22699;51.034;3.730;2023-03-24T15:35:20;5.22;;;1.42;;
36715;SDS011;22699;51.034;3.730;2023-03-24T15:37:50;5.57;;;1.00;;
36715;SDS011;22699;51.034;3.730;2023-03-24T15:43:13;6.57;;;1.45;;
36715;SDS011;22699;51.034;3.730;2023-03-24T15:45:50;7.97;;;1.40;;
36715;SDS011;22699;51.034;3.730;2023-03-24T15:48:29;5.95;;;1.10;;
36715;SDS011;22699;51.034;3.730;2023-03-24T15:53:29;8.35;;;1.90;;
36715;SDS011;22699;51.034;3.730;2023-03-24T15:56:25;7.50;;;1.42;;
36715;SDS011;22699;51.034;3.730;2023-03-24T15:58:54;4.75;;;1.13;;
36715;SDS011;22699;51.034;3.730;2023-03-24T16:04:31;6.22;;;1.13;;
36715;SDS011;22699;51.034;3.730;2023-03-24T16:07:03;5.97;;;1.05;;
36715;SDS011;22699;51.034;3.730;2023-03-24T16:09:37;8.15;;;1.80;;
36715;SDS011;22699;51.034;3.730;2023-03-24T16:12:11;11.40;;;1.75;;
36715;SDS011;22699;51.034;3.730;2023-03-24T16:14:36;5.13;;;0.95;;
36715;SDS011;22699;51.034;3.730;2023-03-24T16:17:04;7.60;;;1.50;;
36715;SDS011;22699;51.034;3.730;2023-03-24T16:19:30;5.57;;;0.90;;
36715;SDS011;22699;51.034;3.730;2023-03-24T16:21:57;6.05;;;1.27;;
36715;SDS011;22699;51.034;3.730;2023-03-24T16:24:31;6.10;;;0.93;;
36715;SDS011;22699;51.034;3.730;2023-03-24T16:26:57;4.55;;;1.15;;
36715;SDS011;22699;51.034;3.730;2023-03-24T16:29:23;7.95;;;1.25;;
36715;SDS011;22699;51.034;3.730;2023-03-24T16:31:50;4.90;;;1.30;;
36715;SDS011;22699;51.034;3.730;2023-03-24T16:34:17;3.25;;;0.90;;
36715;SDS011;22699;51.034;3.730;2023-03-24T16:36:48;6.95;;;1.75;;
36715;SDS011;22699;51.034;3.730;2023-03-24T16:39:19;4.93;;;1.15;;
36715;SDS011;22699;51.034;3.730;2023-03-24T16:41:49;6.05;;;0.98;;
36715;SDS011;22699;51.034;3.730;2023-03-24T16:44:15;4.60;;;0.90;;
36715;SDS011;22699;51.034;3.730;2023-03-24T16:46:45;4.07;;;0.90;;
36715;SDS011;22699;51.034;3.730;2023-03-24T16:49:16;2.55;;;0.75;;
36715;SDS011;22699;51.034;3.730;2023-03-24T16:51:43;6.25;;;1.10;;
36715;SDS011;22699;51.034;3.730;2023-03-24T16:54:10;2.83;;;0.95;;
36715;SDS011;22699;51.034;3.730;2023-03-24T16:56:36;7.25;;;1.30;;
36715;SDS011;22699;51.034;3.730;2023-03-24T16:59:02;4.82;;;1.15;;
36715;SDS011;22699;51.034;3.730;2023-03-24T17:06:33;5.00;;;0.90;;
36715;SDS011;22699;51.034;3.730;2023-03-24T17:09:00;4.60;;;0.80;;
36715;SDS011;22699;51.034;3.730;2023-03-24T17:11:59;9.95;;;1.23;;
36715;SDS011;22699;51.034;3.730;2023-03-24T17:14:20;5.90;;;1.83;;
36715;SDS011;22699;51.034;3.730;2023-03-24T17:16:48;6.13;;;1.40;;
36715;SDS011;22699;51.034;3.730;2023-03-24T17:19:17;5.45;;;1.10;;
36715;SDS011;22699;51.034;3.730;2023-03-24T17:24:19;3.42;;;1.00;;
36715;SDS011;22699;51.034;3.730;2023-03-24T17:26:45;9.45;;;1.55;;
36715;SDS011;22699;51.034;3.730;2023-03-24T17:29:11;4.55;;;1.00;;
36715;SDS011;22699;51.034;3.730;2023-03-24T17:31:37;6.32;;;1.08;;
36715;SDS011;22699;51.034;3.730;2023-03-24T17:34:03;10.55;;;1.58;;
36715;SDS011;22699;51.034;3.730;2023-03-24T17:36:29;4.97;;;1.38;;
36715;SDS011;22699;51.034;3.730;2023-03-24T17:38:58;7.32;;;1.30;;
36715;SDS011;22699;51.034;3.730;2023-03-24T17:41:24;8.20;;;1.50;;
36715;SDS011;22699;51.034;3.730;2023-03-24T17:43:51;4.18;;;1.05;;
36715;SDS011;22699;51.034;3.730;2023-03-24T17:46:17;6.57;;;1.10;;
36715;SDS011;22699;51.034;3.730;2023-03-24T17:48:43;4.00;;;0.93;;
36715;SDS011;22699;51.034;3.730;2023-03-24T17:51:11;5.07;;;1.38;;
36715;SDS011;22699;51.034;3.730;2023-03-24T17:53:39;9.40;;;1.42;;
36715;SDS011;22699;51.034;3.730;2023-03-24T17:56:05;6.25;;;1.92;;
36715;SDS011;22699;51.034;3.730;2023-03-24T17:58:32;5.93;;;1.45;;
36715;SDS011;22699;51.034;3.730;2023-03-24T18:00:59;6.25;;;2.22;;
36715;SDS011;22699;51.034;3.730;2023-03-24T18:03:26;7.03;;;2.05;;
36715;SDS011;22699;51.034;3.730;2023-03-24T18:05:54;4.93;;;1.67;;
36715;SDS011;22699;51.034;3.730;2023-03-24T18:08:21;4.55;;;1.00;;
36715;SDS011;22699;51.034;3.730;2023-03-24T18:10:46;3.45;;;1.08;;
36715;SDS011;22699;51.034;3.730;2023-03-24T18:13:12;4.28;;;0.80;;
36715;SDS011;22699;51.034;3.730;2023-03-24T18:15:39;4.53;;;1.15;;
36715;SDS011;22699;51.034;3.730;2023-03-24T18:18:07;4.95;;;1.00;;
36715;SDS011;22699;51.034;3.730;2023-03-24T18:20:33;4.47;;;0.90;;
36715;SDS011;22699;51.034;3.730;2023-03-24T18:23:01;5.72;;;1.50;;
36715;SDS011;22699;51.034;3.730;2023-03-24T18:25:27;3.45;;;1.00;;
36715;SDS011;22699;51.034;3.730;2023-03-24T18:27:52;7.10;;;1.35;;
36715;SDS011;22699;51.034;3.730;2023-03-24T18:30:20;6.45;;;1.20;;
36715;SDS011;22699;51.034;3.730;2023-03-24T18:32:51;11.60;;;1.50;;
36715;SDS011;22699;51.034;3.730;2023-03-24T18:35:17;5.40;;;1.65;;
36715;SDS011;22699;51.034;3.730;2023-03-24T18:37:43;6.70;;;1.25;;
36715;SDS011;22699;51.034;3.730;2023-03-24T18:40:09;6.30;;;1.23;;
36715;SDS011;22699;51.034;3.730;2023-03-24T18:42:37;7.68;;;2.13;;
36715;SDS011;22699;51.034;3.730;2023-03-24T18:45:04;4.00;;;1.70;;
36715;SDS011;22699;51.034;3.730;2023-03-24T18:47:30;5.35;;;1.30;;
36715;SDS011;22699;51.034;3.730;2023-03-24T18:49:56;7.45;;;1.42;;
36715;SDS011;22699;51.034;3.730;2023-03-24T18:52:22;6.25;;;1.55;;
36715;SDS011;22699;51.034;3.730;2023-03-24T18:54:48;5.65;;;2.30;;
36715;SDS011;22699;51.034;3.730;2023-03-24T18:57:13;7.60;;;1.27;;
36715;SDS011;22699;51.034;3.730;2023-03-24T18:59:42;8.00;;;1.92;;
36715;SDS011;22699;51.034;3.730;2023-03-24T19:02:09;6.50;;;2.58;;
36715;SDS011;22699;51.034;3.730;2023-03-24T19:04:38;6.88;;;2.10;;
36715;SDS011;22699;51.034;3.730;2023-03-24T19:07:04;6.43;;;1.85;;
36715;SDS011;22699;51.034;3.730;2023-03-24T19:09:34;5.10;;;1.40;;
36715;SDS011;22699;51.034;3.730;2023-03-24T19:12:00;5.80;;;2.30;;
36715;SDS011;22699;51.034;3.730;2023-03-24T19:14:26;4.75;;;1.77;;
36715;SDS011;22699;51.034;3.730;2023-03-24T19:16:54;5.22;;;1.40;;
36715;SDS011;22699;51.034;3.730;2023-03-24T19:19:22;7.50;;;1.83;;
36715;SDS011;22699;51.034;3.730;2023-03-24T19:21:48;4.53;;;1.73;;
36715;SDS011;22699;51.034;3.730;2023-03-24T19:24:14;5.93;;;1.52;;
36715;SDS011;22699;51.034;3.730;2023-03-24T19:26:39;8.02;;;2.17;;
36715;SDS011;22699;51.034;3.730;2023-03-24T19:29:05;7.75;;;1.60;;
36715;SDS011;22699;51.034;3.730;2023-03-24T19:31:32;7.60;;;2.20;;
36715;SDS011;22699;51.034;3.730;2023-03-24T19:33:59;5.40;;;1.55;;